createdAt,value
2019-01-25T00:01:28.485Z,-6.20
2019-01-25T00:04:10.434Z,-6.30
2019-01-25T00:06:52.547Z,-6.40
2019-01-25T00:09:34.518Z,-6.40
2019-01-25T00:12:16.806Z,-6.50
2019-01-25T00:14:58.846Z,-6.50
2019-01-25T00:17:40.758Z,-6.60
2019-01-25T00:20:23.045Z,-6.70
2019-01-25T00:23:04.977Z,-6.60
2019-01-25T00:25:47.278Z,-6.60
2019-01-25T00:28:29.262Z,-6.70
2019-01-25T00:31:11.392Z,-6.70
2019-01-25T00:33:53.417Z,-6.70
2019-01-25T00:36:35.507Z,-6.90
2019-01-25T00:39:17.882Z,-7.00
2019-01-25T00:42:00.222Z,-7.00
2019-01-25T00:44:42.490Z,-7.10
2019-01-25T00:47:24.290Z,-7.10
2019-01-25T00:50:06.098Z,-7.10
2019-01-25T00:52:47.934Z,-7.10
2019-01-25T00:55:29.854Z,-7.10
2019-01-25T00:58:11.714Z,-7.20
2019-01-25T01:00:53.661Z,-7.20
2019-01-25T01:03:35.858Z,-7.10
2019-01-25T01:06:17.886Z,-7.10
2019-01-25T01:09:00.137Z,-7.10
2019-01-25T01:11:42.062Z,-7.10
2019-01-25T01:14:24.142Z,-7.10
2019-01-25T01:17:06.222Z,-7.20
2019-01-25T01:19:48.506Z,-7.30
2019-01-25T01:22:30.254Z,-7.40
2019-01-25T01:25:12.718Z,-7.50
2019-01-25T01:27:55.046Z,-7.50
2019-01-25T01:30:37.297Z,-7.40
2019-01-25T01:33:18.934Z,-7.40
2019-01-25T01:36:00.734Z,-7.40
2019-01-25T01:38:42.498Z,-7.40
2019-01-25T01:41:24.650Z,-7.40
2019-01-25T01:44:06.886Z,-7.40
2019-01-25T01:46:49.202Z,-7.40
2019-01-25T01:49:31.722Z,-7.40
2019-01-25T01:52:13.854Z,-7.40
2019-01-25T01:54:55.764Z,-7.50
2019-01-25T01:57:37.862Z,-7.50
2019-01-25T02:00:19.934Z,-7.60
2019-01-25T02:03:01.986Z,-7.60
2019-01-25T02:05:44.405Z,-7.70
2019-01-25T02:08:26.563Z,-7.70
2019-01-25T02:11:08.278Z,-7.70
2019-01-25T02:13:50.346Z,-7.70
2019-01-25T02:16:32.130Z,-7.70
2019-01-25T02:19:14.110Z,-7.70
2019-01-25T02:21:56.678Z,-7.60
2019-01-25T02:24:39.170Z,-7.40
2019-01-25T02:27:21.446Z,-7.50
2019-01-25T02:30:03.273Z,-7.60
2019-01-25T02:32:45.466Z,-7.80
2019-01-25T02:35:27.408Z,-7.90
2019-01-25T02:38:07.918Z,-8.00
2019-01-25T02:40:57.350Z,-8.00
2019-01-25T02:46:40.414Z,-8.10
2019-01-25T02:49:22.006Z,-8.10
2019-01-25T02:52:03.853Z,-8.10
2019-01-25T02:54:46.045Z,-8.10
2019-01-25T02:57:28.384Z,-8.10
2019-01-25T03:00:10.702Z,-8.10
2019-01-25T03:02:52.651Z,-8.10
2019-01-25T03:05:34.902Z,-8.10
2019-01-25T03:08:16.754Z,-8.10
2019-01-25T03:10:58.863Z,-8.10
2019-01-25T03:13:40.563Z,-8.10
2019-01-25T03:16:22.393Z,-8.10
2019-01-25T03:19:04.475Z,-8.20
2019-01-25T03:21:46.455Z,-8.30
2019-01-25T03:24:28.591Z,-8.20
2019-01-25T03:27:11.197Z,-8.30
2019-01-25T03:29:53.214Z,-8.20
2019-01-25T03:32:35.331Z,-8.20
2019-01-25T03:35:17.691Z,-8.20
2019-01-25T03:37:59.690Z,-8.30
2019-01-25T03:40:41.296Z,-8.30
2019-01-25T03:43:23.006Z,-8.40
2019-01-25T03:46:04.616Z,-8.40
2019-01-25T03:48:46.318Z,-8.40
2019-01-25T03:51:28.191Z,-8.50
2019-01-25T03:54:09.862Z,-8.50
2019-01-25T03:56:52.118Z,-8.50
2019-01-25T03:59:34.315Z,-8.60
2019-01-25T04:02:16.426Z,-8.50
2019-01-25T04:04:58.238Z,-8.50
2019-01-25T04:07:40.050Z,-8.50
2019-01-25T04:10:22.183Z,-8.50
2019-01-25T04:13:04.230Z,-8.60
2019-01-25T04:15:46.784Z,-8.50
2019-01-25T04:18:28.774Z,-8.60
2019-01-25T04:21:10.454Z,-8.50
2019-01-25T04:23:52.062Z,-8.50
2019-01-25T04:26:34.394Z,-8.40
2019-01-25T04:29:16.158Z,-8.50
2019-01-25T04:31:57.954Z,-8.50
2019-01-25T04:34:40.258Z,-8.50
2019-01-25T04:37:22.082Z,-8.60
2019-01-25T04:40:03.759Z,-8.60
2019-01-25T04:42:45.491Z,-8.60
2019-01-25T04:45:27.569Z,-8.70
2019-01-25T04:48:10.898Z,-8.70
2019-01-25T04:50:52.854Z,-8.70
2019-01-25T04:53:35.398Z,-8.70
2019-01-25T04:56:15.911Z,-8.80
2019-01-25T04:59:05.442Z,-8.90
2019-01-25T05:01:49.099Z,-8.80
2019-01-25T05:04:32.462Z,-8.90
2019-01-25T05:07:14.746Z,-8.80
2019-01-25T05:09:56.455Z,-8.90
2019-01-25T05:12:38.254Z,-8.90
2019-01-25T05:15:20.310Z,-8.90
2019-01-25T05:18:02.669Z,-9.00
2019-01-25T05:20:44.914Z,-9.10
2019-01-25T05:23:26.642Z,-9.10
2019-01-25T05:26:09.074Z,-9.10
2019-01-25T05:28:51.144Z,-9.00
2019-01-25T05:31:32.928Z,-9.10
2019-01-25T05:34:16.908Z,-9.00
2019-01-25T05:36:58.584Z,-9.10
2019-01-25T05:39:40.306Z,-9.10
2019-01-25T05:42:22.302Z,-9.20
2019-01-25T05:45:05.602Z,-9.20
2019-01-25T05:47:47.974Z,-9.20
2019-01-25T05:50:30.486Z,-9.20
2019-01-25T05:53:11.306Z,-9.20
2019-01-25T05:56:00.653Z,-9.20
2019-01-25T05:58:44.201Z,-9.10
2019-01-25T06:01:26.487Z,-9.20
2019-01-25T06:04:08.859Z,-9.20
2019-01-25T06:06:50.590Z,-9.20
2019-01-25T06:09:33.054Z,-9.20
2019-01-25T06:12:15.011Z,-9.20
2019-01-25T06:14:56.851Z,-9.20
2019-01-25T06:17:38.742Z,-9.20
2019-01-25T06:20:20.890Z,-9.30
2019-01-25T06:23:02.579Z,-9.30
2019-01-25T06:25:46.025Z,-9.30
2019-01-25T06:28:28.430Z,-9.30
2019-01-25T06:31:10.363Z,-9.40
2019-01-25T06:33:52.546Z,-9.40
2019-01-25T06:36:34.790Z,-9.40
2019-01-25T06:39:16.862Z,-9.40
2019-01-25T06:41:58.854Z,-9.30
2019-01-25T06:44:41.094Z,-9.30
2019-01-25T06:47:22.883Z,-9.30
2019-01-25T06:50:04.962Z,-9.20
2019-01-25T06:52:46.914Z,-9.20
2019-01-25T06:55:28.622Z,-9.20
2019-01-25T06:58:29.649Z,-9.30
2019-01-25T07:01:30.609Z,-9.20
2019-01-25T07:04:14.557Z,-9.20
2019-01-25T07:06:56.268Z,-9.00
2019-01-25T07:09:38.046Z,-8.90
2019-01-25T07:12:20.386Z,-8.70
2019-01-25T07:15:02.326Z,-8.50
2019-01-25T07:17:44.137Z,-8.30
2019-01-25T07:20:26.466Z,-8.20
2019-01-25T07:23:08.265Z,-8.10
2019-01-25T07:25:50.330Z,-7.90
2019-01-25T07:28:32.471Z,-7.70
2019-01-25T07:31:14.197Z,-7.50
2019-01-25T07:33:54.686Z,-7.40
2019-01-25T07:36:44.044Z,-7.30
2019-01-25T07:39:28.140Z,-7.10
2019-01-25T07:42:17.673Z,-7.20
2019-01-25T07:45:01.596Z,-7.20
2019-01-25T07:47:44.165Z,-7.10
2019-01-25T07:50:26.324Z,-7.00
2019-01-25T07:53:08.475Z,-6.80
2019-01-25T07:55:50.571Z,-6.80
2019-01-25T07:58:32.847Z,-6.60
2019-01-25T08:01:14.559Z,-6.70
2019-01-25T08:03:56.868Z,-6.60
2019-01-25T08:06:38.636Z,-6.50
2019-01-25T08:09:20.957Z,-6.40
2019-01-25T08:12:07.547Z,-6.50
2019-01-25T08:14:47.338Z,-6.60
2019-01-25T08:17:29.277Z,-6.40
2019-01-25T08:20:11.431Z,-6.20
2019-01-25T08:22:53.693Z,-6.00
2019-01-25T08:25:35.716Z,-5.60
2019-01-25T08:28:17.915Z,-5.20
2019-01-25T08:30:59.518Z,-5.10
2019-01-25T08:33:41.773Z,-5.10
2019-01-25T08:36:23.907Z,-5.00
2019-01-25T08:39:06.049Z,-4.90
2019-01-25T08:41:47.771Z,-4.90
2019-01-25T08:44:30.132Z,-4.80
2019-01-25T08:47:12.263Z,-4.70
2019-01-25T08:49:57.921Z,-4.60
2019-01-25T08:52:38.024Z,-4.50
2019-01-25T08:55:21.412Z,-4.40
2019-01-25T08:58:03.434Z,-3.90
2019-01-25T09:00:45.765Z,-2.90
2019-01-25T09:03:27.467Z,-2.50
2019-01-25T09:06:09.762Z,-2.20
2019-01-25T09:08:51.647Z,-2.50
2019-01-25T09:11:33.579Z,-2.80
2019-01-25T09:14:15.903Z,-2.80
2019-01-25T09:16:58.901Z,-3.00
2019-01-25T09:19:40.694Z,-2.90
2019-01-25T09:22:22.844Z,-2.80
2019-01-25T09:25:04.890Z,-2.70
2019-01-25T09:27:46.766Z,-2.50
2019-01-25T09:30:29.241Z,-2.40
2019-01-25T09:33:11.082Z,-2.40
2019-01-25T09:35:53.042Z,-2.30
2019-01-25T09:38:34.247Z,-2.40
2019-01-25T09:41:23.710Z,-2.30
2019-01-25T09:44:07.631Z,-2.20
2019-01-25T09:46:49.334Z,-2.10
2019-01-25T09:49:31.278Z,-2.00
2019-01-25T09:52:13.150Z,-1.60
2019-01-25T09:54:55.034Z,-1.30
2019-01-25T09:57:36.819Z,-1.20
2019-01-25T10:00:18.946Z,-0.90
2019-01-25T10:03:01.146Z,-1.10
2019-01-25T10:05:43.333Z,-1.30
2019-01-25T10:08:25.506Z,-1.40
2019-01-25T10:11:07.488Z,-1.50
2019-01-25T10:13:49.715Z,-1.50
2019-01-25T10:16:31.346Z,-1.50
2019-01-25T10:19:13.250Z,-1.40
2019-01-25T10:21:55.778Z,-1.30
2019-01-25T10:24:37.446Z,-1.20
2019-01-25T10:27:19.221Z,-1.20
2019-01-25T10:30:01.062Z,-1.00
2019-01-25T10:32:43.138Z,-0.90
2019-01-25T10:35:26.806Z,-0.80
2019-01-25T10:38:09.194Z,-0.50
2019-01-25T10:40:50.770Z,-0.40
2019-01-25T10:43:33.086Z,-0.30
2019-01-25T10:46:15.095Z,-0.20
2019-01-25T10:48:57.287Z,0.00
2019-01-25T10:51:39.614Z,0.20
2019-01-25T10:54:21.645Z,0.40
2019-01-25T10:57:03.957Z,0.30
2019-01-25T10:59:45.852Z,0.20
2019-01-25T11:02:27.870Z,0.20
2019-01-25T11:05:09.646Z,0.20
2019-01-25T11:07:51.778Z,0.10
2019-01-25T11:10:33.691Z,0.10
2019-01-25T11:13:15.824Z,0.20
2019-01-25T11:15:57.858Z,0.40
2019-01-25T11:18:39.773Z,0.40
2019-01-25T11:21:22.399Z,0.40
2019-01-25T11:24:07.871Z,0.40
2019-01-25T11:26:47.740Z,0.30
2019-01-25T11:29:29.986Z,0.20
2019-01-25T11:32:12.682Z,0.30
2019-01-25T11:34:54.396Z,0.20
2019-01-25T11:37:36.279Z,0.10
2019-01-25T11:40:18.970Z,0.10
2019-01-25T11:43:08.124Z,0.10
2019-01-25T11:45:45.001Z,0.20
2019-01-25T11:48:27.337Z,0.20
2019-01-25T11:51:08.986Z,0.40
2019-01-25T11:53:51.267Z,0.50
2019-01-25T11:56:33.856Z,0.60
2019-01-25T11:59:15.905Z,0.70
2019-01-25T12:01:57.925Z,0.80
2019-01-25T12:04:39.994Z,0.80
2019-01-25T12:07:22.555Z,0.80
2019-01-25T12:10:04.715Z,0.80
2019-01-25T12:12:46.522Z,0.80
2019-01-25T12:15:28.801Z,0.80
2019-01-25T12:18:10.442Z,0.90
2019-01-25T12:20:52.310Z,1.00
2019-01-25T12:23:34.194Z,0.90
2019-01-25T12:26:15.898Z,0.90
2019-01-25T12:28:57.960Z,0.90
2019-01-25T12:31:39.743Z,0.90
2019-01-25T12:34:21.775Z,0.80
2019-01-25T12:37:04.853Z,0.90
2019-01-25T12:39:47.081Z,0.90
2019-01-25T12:42:29.061Z,0.90
2019-01-25T12:45:10.732Z,0.90
2019-01-25T12:47:52.613Z,0.90
2019-01-25T12:50:34.684Z,0.90
2019-01-25T12:53:16.594Z,0.90
2019-01-25T12:55:58.766Z,0.90
2019-01-25T12:58:40.738Z,0.90
2019-01-25T13:01:23.079Z,0.90
2019-01-25T13:04:05.527Z,0.90
2019-01-25T13:06:47.566Z,0.90
2019-01-25T13:09:29.875Z,0.90
2019-01-25T13:12:11.534Z,0.90
2019-01-25T13:14:53.670Z,0.80
2019-01-25T13:17:35.512Z,0.70
2019-01-25T13:20:17.902Z,0.60
2019-01-25T13:23:00.047Z,0.60
2019-01-25T13:25:47.124Z,0.60
2019-01-25T13:28:26.208Z,0.60
2019-01-25T13:31:08.144Z,0.60
2019-01-25T13:33:50.118Z,0.60
2019-01-25T13:36:32.142Z,0.60
2019-01-25T13:39:14.142Z,0.50
2019-01-25T13:41:56.118Z,0.50
2019-01-25T13:44:37.780Z,0.40
2019-01-25T13:47:19.751Z,0.30
2019-01-25T13:50:01.926Z,0.30
2019-01-25T13:52:43.665Z,0.40
2019-01-25T13:55:25.614Z,0.40
2019-01-25T13:58:06.363Z,0.30
2019-01-25T14:00:55.761Z,0.50
2019-01-25T14:03:39.616Z,0.50
2019-01-25T14:06:21.486Z,0.40
2019-01-25T14:09:04.623Z,0.30
2019-01-25T14:11:46.938Z,0.30
2019-01-25T14:14:28.963Z,0.20
2019-01-25T14:17:10.754Z,0.30
2019-01-25T14:19:52.795Z,0.30
2019-01-25T14:22:35.192Z,0.30
2019-01-25T14:25:17.314Z,0.20
2019-01-25T14:27:59.350Z,0.10
2019-01-25T14:30:41.058Z,0.00
2019-01-25T14:33:23.294Z,0.10
2019-01-25T14:36:05.163Z,0.20
2019-01-25T14:38:47.235Z,0.50
2019-01-25T14:41:29.350Z,0.70
2019-01-25T14:44:11.670Z,0.80
2019-01-25T14:46:53.386Z,0.90
2019-01-25T14:49:35.290Z,1.00
2019-01-25T14:52:17.122Z,1.10
2019-01-25T14:54:59.095Z,1.00
2019-01-25T14:57:41.358Z,0.90
2019-01-25T15:00:23.417Z,0.80
2019-01-25T15:03:03.889Z,0.70
2019-01-25T15:05:53.957Z,0.60
2019-01-25T15:08:38.104Z,0.40
2019-01-25T15:11:19.980Z,0.20
2019-01-25T15:14:02.489Z,0.20
2019-01-25T15:16:44.343Z,0.20
2019-01-25T15:19:26.262Z,0.10
2019-01-25T15:22:08.270Z,0.10
2019-01-25T15:24:50.466Z,0.10
2019-01-25T15:27:30.879Z,0.00
2019-01-25T15:30:21.289Z,-0.20
2019-01-25T15:33:04.342Z,-0.30
2019-01-25T15:35:46.246Z,-0.50
2019-01-25T15:38:28.279Z,-0.70
2019-01-25T15:41:10.320Z,-0.80
2019-01-25T15:43:52.190Z,-1.00
2019-01-25T15:46:34.704Z,-1.10
2019-01-25T15:49:17.090Z,-1.20
2019-01-25T15:51:58.983Z,-1.40
2019-01-25T15:54:40.786Z,-1.50
2019-01-25T15:57:23.258Z,-1.50
2019-01-25T16:00:05.186Z,-1.40
2019-01-25T16:02:47.725Z,-1.10
2019-01-25T16:05:29.713Z,-1.00
2019-01-25T16:08:11.561Z,-1.00
2019-01-25T16:10:53.389Z,-1.00
2019-01-25T16:13:35.842Z,-1.00
2019-01-25T16:16:17.531Z,-1.10
2019-01-25T16:18:59.518Z,-1.40
2019-01-25T16:21:39.978Z,-1.50
2019-01-25T16:24:29.351Z,-1.70
2019-01-25T16:27:11.439Z,-1.90
2019-01-25T16:29:53.591Z,-2.10
2019-01-25T16:32:35.834Z,-2.20
2019-01-25T16:35:17.737Z,-2.40
2019-01-25T16:38:00.224Z,-2.50
2019-01-25T16:40:42.810Z,-2.60
2019-01-25T16:43:24.825Z,-2.70
2019-01-25T16:46:06.970Z,-2.80
2019-01-25T16:48:49.058Z,-2.90
2019-01-25T16:51:31.589Z,-3.00
2019-01-25T16:54:13.779Z,-3.10
2019-01-25T16:56:55.778Z,-3.10
2019-01-25T16:59:37.707Z,-3.20
2019-01-25T17:02:19.781Z,-3.30
2019-01-25T17:05:01.735Z,-3.40
2019-01-25T17:07:43.766Z,-3.50
2019-01-25T17:10:25.840Z,-3.50
2019-01-25T17:13:07.930Z,-3.50
2019-01-25T17:15:50.174Z,-3.50
2019-01-25T17:18:30.650Z,-3.50
2019-01-25T17:21:20.083Z,-3.50
2019-01-25T17:24:03.730Z,-3.60
2019-01-25T17:26:45.650Z,-3.70
2019-01-25T17:29:27.682Z,-3.80
2019-01-25T17:32:09.702Z,-3.90
2019-01-25T17:34:51.506Z,-3.90
2019-01-25T17:37:33.598Z,-4.10
2019-01-25T17:40:15.789Z,-4.20
2019-01-25T17:42:57.954Z,-4.30
2019-01-25T17:45:40.467Z,-4.40
2019-01-25T17:48:22.313Z,-4.50
2019-01-25T17:51:04.250Z,-4.50
2019-01-25T17:53:46.034Z,-4.60
2019-01-25T17:56:16.361Z,-4.60
2019-01-25T17:59:07.509Z,-4.60
2019-01-25T18:01:51.406Z,-4.80
2019-01-25T18:04:33.528Z,-4.80
2019-01-25T18:07:15.499Z,-4.90
2019-01-25T18:09:57.374Z,-4.90
2019-01-25T18:12:39.668Z,-5.00
2019-01-25T18:15:21.807Z,-5.10
2019-01-25T18:18:05.543Z,-5.10
2019-01-25T18:20:47.251Z,-5.10
2019-01-25T18:23:29.090Z,-5.10
2019-01-25T18:26:11.071Z,-5.20
2019-01-25T18:28:52.870Z,-5.30
2019-01-25T18:31:34.627Z,-5.40
2019-01-25T18:34:17.134Z,-5.40
2019-01-25T18:36:59.351Z,-5.50
2019-01-25T18:39:41.709Z,-5.50
2019-01-25T18:42:23.898Z,-5.50
2019-01-25T18:45:05.798Z,-5.60
2019-01-25T18:47:47.666Z,-5.60
2019-01-25T18:50:29.436Z,-5.60
2019-01-25T18:53:11.658Z,-5.60
2019-01-25T18:55:53.858Z,-5.60
2019-01-25T18:58:35.646Z,-5.60
2019-01-25T19:01:17.342Z,-5.70
2019-01-25T19:03:58.965Z,-5.80
2019-01-25T19:06:41.138Z,-5.90
2019-01-25T19:09:23.238Z,-6.00
2019-01-25T19:12:04.935Z,-6.10
2019-01-25T19:14:46.849Z,-6.10
2019-01-25T19:17:28.866Z,-6.10
2019-01-25T19:20:10.118Z,-5.80
2019-01-25T19:22:59.484Z,-5.60
2019-01-25T19:25:41.369Z,-5.70
2019-01-25T19:28:23.194Z,-5.80
2019-01-25T19:31:04.934Z,-5.80
2019-01-25T19:33:46.566Z,-5.90
2019-01-25T19:36:28.635Z,-5.90
2019-01-25T19:39:10.566Z,-6.00
2019-01-25T19:41:52.617Z,-6.10
2019-01-25T19:44:34.439Z,-6.20
2019-01-25T19:47:16.570Z,-6.30
2019-01-25T19:49:58.513Z,-6.40
2019-01-25T19:52:40.154Z,-6.50
2019-01-25T19:55:22.052Z,-6.60
2019-01-25T19:58:04.166Z,-6.70
2019-01-25T20:00:45.986Z,-6.70
2019-01-25T20:03:28.118Z,-6.70
2019-01-25T20:06:09.824Z,-6.70
2019-01-25T20:08:51.590Z,-6.60
2019-01-25T20:11:33.418Z,-6.70
2019-01-25T20:14:15.079Z,-6.70
2019-01-25T20:16:57.065Z,-6.60
2019-01-25T20:19:38.718Z,-6.70
2019-01-25T20:22:21.122Z,-6.70
2019-01-25T20:25:03.406Z,-6.80
2019-01-25T20:27:45.362Z,-6.80
2019-01-25T20:30:27.213Z,-6.80
2019-01-25T20:33:09.313Z,-6.80
2019-01-25T20:35:51.473Z,-6.80
2019-01-25T20:38:31.958Z,-6.80
2019-01-25T20:41:21.434Z,-6.70
2019-01-25T20:44:04.639Z,-6.70
2019-01-25T20:46:46.556Z,-6.70
2019-01-25T20:49:28.390Z,-6.70
2019-01-25T20:52:10.298Z,-6.60
2019-01-25T20:54:52.700Z,-6.60
2019-01-25T20:57:34.839Z,-6.50
2019-01-25T21:00:16.861Z,-6.50
2019-01-25T21:02:58.945Z,-6.60
2019-01-25T21:05:40.892Z,-6.60
2019-01-25T21:08:22.822Z,-6.70
2019-01-25T21:11:04.509Z,-6.50
2019-01-25T21:13:46.100Z,-6.40
2019-01-25T21:16:28.181Z,-6.50
2019-01-25T21:19:10.251Z,-6.60
2019-01-25T21:21:52.266Z,-6.70
2019-01-25T21:24:33.950Z,-6.80
2019-01-25T21:27:15.578Z,-6.90
2019-01-25T21:32:57.087Z,-6.90
2019-01-25T21:35:39.139Z,-6.80
2019-01-25T21:38:21.094Z,-6.80
2019-01-25T21:41:03.030Z,-6.80
2019-01-25T21:43:45.257Z,-6.90
2019-01-25T21:46:27.894Z,-7.00
2019-01-25T21:49:09.870Z,-7.00
2019-01-25T21:51:52.046Z,-7.10
2019-01-25T21:54:33.947Z,-7.10
2019-01-25T21:57:16.135Z,-7.20
2019-01-25T21:59:58.371Z,-7.20
2019-01-25T22:02:40.127Z,-7.20
2019-01-25T22:05:22.273Z,-7.30
2019-01-25T22:08:03.878Z,-7.30
2019-01-25T22:10:45.809Z,-7.30
2019-01-25T22:13:27.557Z,-7.30
2019-01-25T22:16:09.725Z,-7.30
2019-01-25T22:18:51.467Z,-7.30
2019-01-25T22:21:33.273Z,-7.30
2019-01-25T22:24:15.222Z,-7.20
2019-01-25T22:26:57.207Z,-6.60
2019-01-25T22:29:38.874Z,-6.70
2019-01-25T22:32:21.106Z,-6.40
2019-01-25T22:35:02.782Z,-6.60
2019-01-25T22:37:43.421Z,-6.80
2019-01-25T22:40:32.766Z,-6.90
2019-01-25T22:43:16.482Z,-7.00
2019-01-25T22:45:58.995Z,-7.10
2019-01-25T22:48:41.520Z,-7.20
2019-01-25T22:51:23.586Z,-7.30
2019-01-25T22:54:05.314Z,-7.30
2019-01-25T22:56:47.254Z,-7.40
2019-01-25T22:59:29.270Z,-7.50
2019-01-25T23:02:10.989Z,-7.50
2019-01-25T23:04:52.806Z,-7.50
2019-01-25T23:07:34.963Z,-7.60
2019-01-25T23:10:17.158Z,-7.70
2019-01-25T23:12:58.846Z,-7.70
2019-01-25T23:15:40.946Z,-7.70
2019-01-25T23:18:23.226Z,-7.50
2019-01-25T23:21:05.270Z,-7.60
2019-01-25T23:23:47.450Z,-7.70
2019-01-25T23:26:29.743Z,-7.80
2019-01-25T23:29:11.678Z,-7.90
2019-01-25T23:31:53.762Z,-7.90
2019-01-25T23:34:36.033Z,-8.00
2019-01-25T23:37:17.777Z,-8.00
2019-01-25T23:39:59.810Z,-8.00
2019-01-25T23:42:41.485Z,-8.10
2019-01-25T23:45:23.806Z,-8.10
2019-01-25T23:48:05.423Z,-8.20
2019-01-25T23:50:47.647Z,-8.20
2019-01-25T23:53:29.726Z,-8.20
2019-01-25T23:56:11.334Z,-8.30
2019-01-25T23:58:53.625Z,-8.30
